Time;durP1;ratioP1;P1;durP2;ratioP2;P2;SDS_P1;SDS_P2;PMS_P1;PMS_P2;Temp;Humidity;BMP_temperature;BMP_pressure;BME280_temperature;BME280_humidity;BME280_pressure;Samples;Min_cycle;Max_cycle;Signal;HPM_P1;HPM_P2
2021/08/21 00:01:56;;;;;;;1.80;1.30;;;;;;;-148.56;100.00;61375.16;4992488;28;20500;-26
2021/08/21 00:05:20;;;;;;;3.33;1.50;;;;;;;-148.56;100.00;61375.16;4987123;28;20034;-26
2021/08/21 00:08:44;;;;;;;3.17;1.35;;;;;;;-148.56;100.00;61375.16;4984670;28;20038;-28
2021/08/21 00:12:08;;;;;;;3.28;1.50;;;;;;;-148.56;100.00;61375.16;4989983;28;20045;-26
2021/08/21 00:15:32;;;;;;;1.75;1.35;;;;;;;-148.56;100.00;61375.16;4986534;28;20029;-26
2021/08/21 00:18:57;;;;;;;1.80;1.30;;;;;;;-148.56;100.00;61375.16;4991332;28;20040;-27
2021/08/21 00:22:21;;;;;;;1.85;1.50;;;;;;;-148.56;100.00;61375.16;4991444;28;20049;-27
2021/08/21 00:25:45;;;;;;;5.35;1.40;;;;;;;-148.56;100.00;61375.16;4982145;28;20048;-27
2021/08/21 00:29:08;;;;;;;1.63;1.25;;;;;;;-148.56;100.00;61375.16;4988723;28;20109;-28
2021/08/21 00:32:32;;;;;;;3.85;1.50;;;;;;;-148.56;100.00;61375.16;4984791;28;20083;-26
2021/08/21 00:35:48;;;;;;;2.15;1.00;;;;;;;;;;4985899;28;20072;-27
2021/08/21 00:39:12;;;;;;;1.70;1.20;;;;;;;-148.56;100.00;61375.16;4986670;28;20034;-28
2021/08/21 00:42:36;;;;;;;1.52;1.33;;;;;;;-148.56;100.00;61375.16;4987850;28;20044;-27
2021/08/21 00:46:01;;;;;;;2.47;1.30;;;;;;;-148.56;100.00;61375.16;4988664;28;21768;-28
2021/08/21 00:48:27;;;;;;;1.50;1.20;;;;;;;-148.56;100.00;61375.16;4986382;28;20042;-28
2021/08/21 00:51:34;;;;;;;2.13;1.13;;;;;;;-148.56;100.00;61375.16;4987244;28;20037;-29
2021/08/21 00:54:32;;;;;;;1.80;1.40;;;;;;;-148.56;100.00;61375.16;4987036;28;20025;-28
2021/08/21 00:57:39;;;;;;;4.25;1.60;;;;;;;-148.56;100.00;61375.16;4986757;28;20023;-27
2021/08/21 01:00:06;;;;;;;2.70;1.48;;;;;;;-148.56;100.00;61375.16;4983852;28;20030;-26
2021/08/21 01:02:32;;;;;;;2.33;1.30;;;;;;;-148.56;100.00;61375.16;4993632;28;20057;-27
2021/08/21 01:04:58;;;;;;;2.95;1.70;;;;;;;-148.56;100.00;61375.16;4988822;28;20036;-28
2021/08/21 01:08:18;;;;;;;1.95;1.08;;;;;;;-148.56;100.00;61375.16;4987729;28;20674;-28
2021/08/21 01:11:42;;;;;;;3.38;1.45;;;;;;;-148.56;100.00;61375.16;4988041;28;20942;-27
2021/08/21 01:15:06;;;;;;;1.80;1.10;;;;;;;-148.56;100.00;61375.16;4988361;28;20522;-28
2021/08/21 01:18:30;;;;;;;1.77;1.40;;;;;;;-148.56;100.00;61375.16;4987855;28;20532;-27
2021/08/21 01:21:54;;;;;;;4.35;1.55;;;;;;;-148.56;100.00;61375.16;4991719;28;20028;-26
2021/08/21 01:25:19;;;;;;;1.35;1.08;;;;;;;-148.56;100.00;61375.16;4993257;28;20080;-26
2021/08/21 01:28:43;;;;;;;2.65;1.30;;;;;;;-148.56;100.00;61375.16;4988224;28;20563;-27
2021/08/21 01:32:06;;;;;;;1.77;1.20;;;;;;;-148.56;100.00;61375.16;4984424;28;20111;-27
2021/08/21 01:35:30;;;;;;;1.73;1.10;;;;;;;-148.56;100.00;61375.16;4981755;28;20092;-27
2021/08/21 01:38:52;;;;;;;2.83;1.20;;;;;;;-148.56;100.00;61375.16;4976581;28;20030;-27
2021/08/21 01:41:42;;;;;;;2.90;1.20;;;;;;;-148.56;100.00;61375.16;4992324;28;20401;-27
2021/08/21 01:44:22;;;;;;;2.22;1.50;;;;;;;-148.56;100.00;61375.16;4993239;28;20038;-27
2021/08/21 01:46:48;;;;;;;3.25;1.60;;;;;;;-148.56;100.00;61375.16;4983860;28;20503;-26
2021/08/21 01:50:11;;;;;;;2.03;1.40;;;;;;;-148.56;100.00;61375.16;4984226;28;20041;-28
2021/08/21 01:52:51;;;;;;;2.75;1.30;;;;;;;-148.56;100.00;61375.16;4987079;28;20029;-26
2021/08/21 01:56:01;;;;;;;2.17;1.50;;;;;;;-148.56;100.00;61375.16;4986242;28;20030;-27
2021/08/21 01:59:25;;;;;;;2.45;1.52;;;;;;;-148.56;100.00;61375.16;5001241;28;20041;-27
2021/08/21 02:01:56;;;;;;;2.80;1.27;;;;;;;-148.56;100.00;61375.16;4982611;28;20025;-26
2021/08/21 02:04:28;;;;;;;1.70;1.30;;;;;;;-148.56;100.00;61375.16;4986609;28;20037;-26
2021/08/21 02:06:55;;;;;;;2.30;1.30;;;;;;;-148.56;100.00;61375.16;4982933;28;20033;-27
2021/08/21 02:10:20;;;;;;;2.28;1.45;;;;;;;-148.56;100.00;61375.16;4982959;28;20038;-27
2021/08/21 02:13:44;;;;;;;1.23;1.13;;;;;;;-148.56;100.00;61375.16;4986987;28;20029;-27
2021/08/21 02:17:08;;;;;;;1.10;1.00;;;;;;;-148.56;100.00;61375.16;4986746;28;20061;-27
2021/08/21 02:20:32;;;;;;;2.60;1.30;;;;;;;-148.56;100.00;61375.16;4963538;28;20523;-28
2021/08/21 02:23:01;;;;;;;1.88;1.30;;;;;;;-148.56;100.00;61375.16;4988092;28;20041;-27
2021/08/21 02:25:30;;;;;;;2.08;1.60;;;;;;;-148.56;100.00;61375.16;4986651;28;20092;-26
2021/08/21 02:27:59;;;;;;;2.25;1.40;;;;;;;-148.56;100.00;61375.16;4986328;28;21122;-27
2021/08/21 02:30:24;;;;;;;1.58;1.33;;;;;;;-148.56;100.00;61375.16;4985276;28;20577;-27
2021/08/21 02:32:50;;;;;;;1.38;1.15;;;;;;;-148.56;100.00;61375.16;4986561;28;20037;-28
2021/08/21 02:35:15;;;;;;;1.58;1.10;;;;;;;-148.56;100.00;61375.16;4985913;28;20443;-28
2021/08/21 02:37:40;;;;;;;2.70;1.48;;;;;;;-148.56;100.00;61375.16;4986202;28;20260;-27
2021/08/21 02:40:06;;;;;;;2.05;1.30;;;;;;;-148.56;100.00;61375.16;4979630;28;20655;-26
2021/08/21 02:42:32;;;;;;;2.13;1.08;;;;;;;-148.56;100.00;61375.16;4993584;28;20030;-28
2021/08/21 02:45:21;;;;;;;1.63;1.38;;;;;;;29.44;36.96;96820.25;4982104;28;20037;-27
2021/08/21 02:48:27;;;;;;;1.88;1.38;;;;;;;-148.56;100.00;61375.16;4984876;28;20108;-27
2021/08/21 02:51:05;;;;;;;2.83;1.58;;;;;;;-148.56;100.00;61375.16;4988208;28;20034;-28
2021/08/21 02:53:41;;;;;;;4.07;1.40;;;;;;;-148.56;100.00;61375.16;4986226;28;20038;-27
2021/08/21 02:56:06;;;;;;;2.70;1.33;;;;;;;-148.56;100.00;61375.16;4988880;28;20034;-26
2021/08/21 02:58:33;;;;;;;3.65;1.20;;;;;;;-148.56;100.00;61375.16;4988918;28;20034;-27
2021/08/21 03:01:02;;;;;;;2.70;1.70;;;;;;;-148.56;100.00;61375.16;4990243;28;20034;-27
2021/08/21 03:03:47;;;;;;;3.47;1.50;;;;;;;-148.56;100.00;61375.16;4988152;28;20060;-28
2021/08/21 03:06:35;;;;;;;2.35;1.30;;;;;;;-148.56;100.00;61375.16;4986006;28;20584;-28
2021/08/21 03:09:02;;;;;;;1.33;1.20;;;;;;;29.44;100.00;147968.91;4986599;28;20052;-28
2021/08/21 03:12:29;;;;;;;1.63;1.00;;;;;;;-148.56;100.00;61375.16;4987732;28;20824;-27
2021/08/21 03:15:52;;;;;;;1.58;1.30;;;;;;;-148.56;100.00;61375.16;4992492;28;20034;-26
2021/08/21 03:19:16;;;;;;;1.98;1.30;;;;;;;-148.56;100.00;61375.16;4991199;28;20124;-28
2021/08/21 03:22:40;;;;;;;2.67;1.30;;;;;;;-148.56;100.00;61375.16;4993584;28;20488;-25
2021/08/21 03:26:04;;;;;;;2.65;1.35;;;;;;;-148.56;100.00;61375.16;4989564;28;20029;-28
2021/08/21 03:29:28;;;;;;;1.60;1.15;;;;;;;-148.56;100.00;61375.16;4991220;28;20044;-29
2021/08/21 03:32:52;;;;;;;4.20;1.80;;;;;;;-148.56;100.00;61375.16;4990843;28;20515;-27
2021/08/21 03:36:16;;;;;;;2.13;1.50;;;;;;;-148.56;100.00;61375.16;4986982;28;20042;-27
2021/08/21 03:39:40;;;;;;;1.92;1.38;;;;;;;-148.56;100.00;61375.16;4990532;28;20052;-27
2021/08/21 03:43:04;;;;;;;3.22;1.63;;;;;;;-148.56;100.00;61375.16;4985131;28;20095;-27
2021/08/21 03:46:28;;;;;;;2.65;1.23;;;;;;;-148.56;100.00;61375.16;4990150;28;20622;-28
2021/08/21 03:49:51;;;;;;;2.97;1.30;;;;;;;-148.56;100.00;61375.16;4990287;28;20539;-26
2021/08/21 03:53:16;;;;;;;4.80;1.55;;;;;;;-148.56;100.00;61375.16;4988813;28;20034;-26
2021/08/21 03:56:40;;;;;;;3.83;1.38;;;;;;;-148.56;100.00;61375.16;4987715;28;21292;-27
2021/08/21 04:00:04;;;;;;;4.22;1.60;;;;;;;-148.56;100.00;61375.16;4990826;28;20100;-28
2021/08/21 04:03:28;;;;;;;2.08;1.05;;;;;;;-148.56;100.00;61375.16;4990223;28;20026;-27
2021/08/21 04:06:52;;;;;;;4.32;1.63;;;;;;;-148.56;100.00;61375.16;4990298;28;20040;-26
2021/08/21 04:10:15;;;;;;;2.65;1.45;;;;;;;-148.56;100.00;61375.16;4988425;28;20030;-26
2021/08/21 04:13:39;;;;;;;2.35;1.15;;;;;;;-148.56;100.00;61375.16;4988559;28;20072;-28
2021/08/21 04:17:03;;;;;;;1.77;1.38;;;;;;;-148.56;100.00;61375.16;4986029;28;20483;-26
2021/08/21 04:20:27;;;;;;;4.35;1.60;;;;;;;-148.56;100.00;61375.16;4983534;28;20104;-26
2021/08/21 04:23:53;;;;;;;1.48;1.10;;;;;;;-148.56;100.00;61375.16;4987376;28;20092;-27
2021/08/21 04:27:17;;;;;;;3.58;1.20;;;;;;;-148.56;100.00;61375.16;4987711;28;20029;-27
2021/08/21 04:30:41;;;;;;;2.47;1.48;;;;;;;-148.56;100.00;61375.16;4991240;28;20137;-26
2021/08/21 04:34:05;;;;;;;1.85;1.35;;;;;;;-148.56;100.00;61375.16;4989072;28;20022;-27
2021/08/21 04:37:28;;;;;;;1.60;1.05;;;;;;;-148.56;100.00;61375.16;4987830;28;20026;-29
2021/08/21 04:40:52;;;;;;;2.05;1.23;;;;;;;-148.56;100.00;61375.16;4983168;28;20037;-26
2021/08/21 04:44:16;;;;;;;2.72;1.45;;;;;;;-148.56;100.00;61375.16;4985536;28;20120;-27
2021/08/21 04:47:40;;;;;;;1.73;1.15;;;;;;;-148.56;100.00;61375.16;4984029;28;20037;-28
2021/08/21 04:51:04;;;;;;;2.90;1.55;;;;;;;-148.56;100.00;61375.16;4990982;28;20420;-28
2021/08/21 04:54:28;;;;;;;1.30;1.10;;;;;;;-148.56;100.00;61375.16;4988840;28;20042;-26
2021/08/21 04:57:52;;;;;;;2.03;1.20;;;;;;;-148.56;100.00;61375.16;4986332;28;20034;-27
2021/08/21 05:01:16;;;;;;;1.98;1.10;;;;;;;-148.56;100.00;61375.16;4987119;28;20045;-27
2021/08/21 05:04:40;;;;;;;1.48;1.10;;;;;;;-148.56;100.00;61375.16;4984492;28;20120;-27
2021/08/21 05:08:04;;;;;;;1.55;1.15;;;;;;;-148.56;100.00;61375.16;4990819;28;20400;-27
2021/08/21 05:11:28;;;;;;;1.40;1.17;;;;;;;-148.56;100.00;61375.16;4986580;28;20033;-26
2021/08/21 05:14:52;;;;;;;2.03;1.40;;;;;;;-148.56;100.00;61375.16;4987277;28;20120;-26
2021/08/21 05:18:23;;;;;;;1.40;0.98;;;;;;;-148.56;100.00;61375.16;4983585;28;20120;-24
2021/08/21 05:21:48;;;;;;;1.95;1.20;;;;;;;-148.56;100.00;61375.16;4990856;28;20034;-28
2021/08/21 05:25:12;;;;;;;1.92;1.15;;;;;;;-148.56;100.00;61375.16;4993231;28;20049;-31
2021/08/21 05:28:36;;;;;;;1.30;1.20;;;;;;;-148.56;100.00;61375.16;4982582;28;20025;-28
2021/08/21 05:32:00;;;;;;;1.92;1.30;;;;;;;-148.56;100.00;61375.16;4992200;28;20559;-28
2021/08/21 05:35:24;;;;;;;2.03;1.30;;;;;;;-148.56;100.00;61375.16;4983036;28;20034;-28
2021/08/21 05:38:48;;;;;;;1.50;1.35;;;;;;;-148.56;100.00;61375.16;4986772;28;20203;-27
2021/08/21 05:42:12;;;;;;;1.23;1.00;;;;;;;-148.56;100.00;61375.16;4995870;28;20492;-27
2021/08/21 05:45:36;;;;;;;1.63;1.25;;;;;;;-148.56;100.00;61375.16;4985780;28;20124;-27
2021/08/21 05:48:59;;;;;;;1.55;1.17;;;;;;;-148.56;100.00;61375.16;4987656;28;20072;-25
2021/08/21 05:52:23;;;;;;;1.17;1.08;;;;;;;-148.56;100.00;61375.16;4984528;28;20523;-27
2021/08/21 05:55:47;;;;;;;1.17;0.98;;;;;;;-148.56;100.00;61375.16;4988833;28;20025;-27
2021/08/21 05:59:11;;;;;;;1.42;1.27;;;;;;;-148.56;100.00;61375.16;4987004;28;20566;-25
2021/08/21 06:02:35;;;;;;;2.50;1.10;;;;;;;-148.56;100.00;61375.16;4981111;28;20092;-26
2021/08/21 06:05:59;;;;;;;2.10;1.60;;;;;;;-148.56;100.00;61375.16;4986110;28;20030;-28
2021/08/21 06:09:24;;;;;;;1.30;1.20;;;;;;;-148.56;100.00;61375.16;4988706;28;20030;-28
2021/08/21 06:12:48;;;;;;;1.50;1.40;;;;;;;-148.56;100.00;61375.16;4986043;28;20077;-26
2021/08/21 06:16:12;;;;;;;3.05;1.17;;;;;;;-148.56;100.00;61375.16;4988281;28;20264;-27
2021/08/21 06:19:36;;;;;;;2.67;1.20;;;;;;;-148.56;100.00;61375.16;4985765;28;21165;-27
2021/08/21 06:23:00;;;;;;;1.70;1.20;;;;;;;-148.56;100.00;61375.16;4985844;28;20103;-26
2021/08/21 06:26:24;;;;;;;1.98;1.10;;;;;;;-148.56;100.00;61375.16;4980544;28;20135;-27
2021/08/21 06:29:48;;;;;;;2.78;1.27;;;;;;;-148.56;100.00;61375.16;4985012;28;21110;-27
2021/08/21 06:33:12;;;;;;;2.53;1.35;;;;;;;-148.56;100.00;61375.16;4982854;28;20041;-28
2021/08/21 06:36:36;;;;;;;15.63;2.65;;;;;;;-148.56;100.00;61375.16;4979884;28;20038;-27
2021/08/21 06:39:59;;;;;;;5.15;3.30;;;;;;;-148.56;100.00;61375.16;4982161;28;20034;-26
2021/08/21 06:42:29;;;;;;;8.00;3.83;;;;;;;29.44;36.96;96820.25;4988166;28;20847;-27
2021/08/21 06:44:55;;;;;;;8.20;4.35;;;;;;;-148.56;100.00;61375.16;4987559;28;20038;-27
2021/08/21 06:48:19;;;;;;;9.02;3.92;;;;;;;-148.56;100.00;61375.16;4984723;28;20088;-29
2021/08/21 06:50:44;;;;;;;6.82;3.97;;;;;;;29.01;34.15;96823.13;4988628;28;20087;-26
2021/08/21 06:54:08;;;;;;;8.40;3.72;;;;;;;-148.56;100.00;61375.16;4991292;28;20051;-28
2021/08/21 06:57:01;;;;;;;6.75;4.00;;;;;;;-148.56;100.00;61375.16;4993477;28;20038;-30
2021/08/21 06:59:27;;;;;;;8.88;3.65;;;;;;;-148.56;100.00;61375.16;4989473;28;20448;-26
2021/08/21 07:02:51;;;;;;;6.65;3.50;;;;;;;-148.56;100.00;61375.16;4987317;28;20046;-28
2021/08/21 07:06:14;;;;;;;7.90;3.80;;;;;;;-148.56;100.00;61375.16;4989897;28;20152;-30
2021/08/21 07:09:38;;;;;;;7.70;4.13;;;;;;;-148.56;100.00;61375.16;4989836;28;20284;-29
2021/08/21 07:12:41;;;;;;;5.13;3.88;;;;;;;-148.56;100.00;61375.16;4991775;28;20041;-27
2021/08/21 07:15:48;;;;;;;9.05;3.95;;;;;;;-148.56;100.00;61375.16;4993141;28;20393;-29
2021/08/21 07:18:23;;;;;;;8.45;4.13;;;;;;;-148.56;100.00;61375.16;4997397;28;20127;-30
2021/08/21 07:20:51;;;;;;;5.80;3.92;;;;;;;-148.56;100.00;61375.16;4995527;28;20030;-29
2021/08/21 07:24:07;;;;;;;4.60;3.70;;;;;;;-148.56;100.00;61375.16;4992075;28;20744;-29
2021/08/21 07:27:31;;;;;;;8.07;4.03;;;;;;;-148.56;100.00;61375.16;4991031;28;20036;-30
2021/08/21 07:30:53;;;;;;;6.63;3.78;;;;;;;-148.56;100.00;61375.16;4988086;28;20033;-27
2021/08/21 07:34:17;;;;;;;9.10;4.38;;;;;;;-148.56;100.00;61375.16;4989726;28;20040;-26
2021/08/21 07:37:41;;;;;;;10.73;4.22;;;;;;;-148.56;100.00;61375.16;4995204;28;20034;-27
2021/08/21 07:41:05;;;;;;;6.47;3.67;;;;;;;-148.56;100.00;61375.16;4990026;28;20141;-28
2021/08/21 07:44:29;;;;;;;6.20;4.30;;;;;;;-148.56;100.00;61375.16;4991906;28;20413;-28
2021/08/21 07:47:53;;;;;;;7.55;4.45;;;;;;;-148.56;100.00;61375.16;4989500;28;20104;-31
2021/08/21 07:51:17;;;;;;;7.75;3.85;;;;;;;-148.56;100.00;61375.16;4992693;28;20036;-28
2021/08/21 07:54:40;;;;;;;5.07;3.60;;;;;;;-148.56;100.00;61375.16;4989667;28;20043;-30
2021/08/21 07:58:04;;;;;;;6.90;3.92;;;;;;;-148.56;100.00;61375.16;4990431;28;20699;-29
2021/08/21 08:01:29;;;;;;;6.45;3.65;;;;;;;-148.56;100.00;61375.16;4990554;28;20765;-27
2021/08/21 08:04:52;;;;;;;6.35;3.55;;;;;;;-148.56;100.00;61375.16;4987510;28;21926;-27
2021/08/21 08:08:16;;;;;;;6.85;3.60;;;;;;;-148.56;100.00;61375.16;4990491;28;20117;-27
2021/08/21 08:11:40;;;;;;;6.93;3.63;;;;;;;-148.56;100.00;61375.16;4990975;28;20629;-27
2021/08/21 08:15:04;;;;;;;4.97;3.50;;;;;;;-148.56;100.00;61375.16;4987849;28;20136;-26
2021/08/21 08:18:28;;;;;;;15.50;3.40;;;;;;;-148.56;100.00;61375.16;4989344;28;20168;-28
2021/08/21 08:21:52;;;;;;;10.93;4.45;;;;;;;-148.56;100.00;61375.16;4990197;28;20053;-26
2021/08/21 08:25:16;;;;;;;9.23;3.72;;;;;;;-148.56;100.00;61375.16;4990873;28;20030;-30
2021/08/21 08:28:40;;;;;;;8.70;4.15;;;;;;;-148.56;100.00;61375.16;4989354;28;20031;-28
2021/08/21 08:32:04;;;;;;;9.85;4.50;;;;;;;-148.56;100.00;61375.16;4988528;28;20037;-30
2021/08/21 08:35:28;;;;;;;7.00;3.50;;;;;;;-148.56;100.00;61375.16;4988353;28;20065;-30
2021/08/21 08:38:51;;;;;;;8.52;3.13;;;;;;;-148.56;100.00;61375.16;4991996;28;20040;-28
2021/08/21 08:42:18;;;;;;;7.78;3.58;;;;;;;-148.56;100.00;61375.16;4989776;28;20080;-28
2021/08/21 08:45:43;;;;;;;7.15;3.80;;;;;;;-148.56;100.00;61375.16;4990147;28;20033;-28
2021/08/21 08:49:07;;;;;;;4.72;3.40;;;;;;;-148.56;100.00;61375.16;4988751;28;20079;-27
2021/08/21 08:52:32;;;;;;;9.18;3.60;;;;;;;-148.56;100.00;61375.16;4990548;28;20029;-29
2021/08/21 08:55:56;;;;;;;9.15;3.90;;;;;;;-148.56;100.00;61375.16;4986981;28;20046;-28
2021/08/21 08:59:20;;;;;;;5.45;3.13;;;;;;;-148.56;100.00;61375.16;4987355;28;20030;-30
2021/08/21 09:02:48;;;;;;;7.60;3.40;;;;;;;-148.56;100.00;61375.16;4983793;28;20034;-27
2021/08/21 09:06:15;;;;;;;4.78;3.00;;;;;;;-148.56;100.00;61375.16;4989706;28;20035;-28
2021/08/21 09:09:39;;;;;;;5.35;3.25;;;;;;;-148.56;100.00;61375.16;4988266;28;20033;-28
2021/08/21 09:13:03;;;;;;;6.55;3.38;;;;;;;-148.56;100.00;61375.16;4990173;28;20188;-28
2021/08/21 09:16:27;;;;;;;8.82;3.72;;;;;;;-148.56;100.00;61375.16;4989079;28;20504;-28
2021/08/21 09:20:02;;;;;;;7.53;3.92;;;;;;;-148.56;100.00;61375.16;4984642;28;20041;-29
2021/08/21 09:22:28;;;;;;;7.68;3.40;;;;;;;28.92;36.03;96833.34;4990630;28;20032;-28
2021/08/21 09:24:53;;;;;;;8.02;3.20;;;;;;;28.95;35.98;96827.88;4987043;28;20053;-28
2021/08/21 09:27:19;;;;;;;7.22;3.67;;;;;;;29.00;35.90;96824.09;4985225;28;20034;-28
2021/08/21 09:29:45;;;;;;;6.25;3.15;;;;;;;29.01;35.88;96820.50;4984072;28;20053;-28
2021/08/21 09:33:09;;;;;;;5.43;3.42;;;;;;;-148.56;100.00;61375.16;4984976;28;21793;-28
2021/08/21 09:36:33;;;;;;;4.50;3.22;;;;;;;-148.56;100.00;61375.16;4978667;28;20117;-27
2021/08/21 09:40:07;;;;;;;5.00;3.08;;;;;;;-148.56;100.00;61375.16;4992634;28;20156;-27
2021/08/21 09:43:37;;;;;;;5.57;2.92;;;;;;;-148.56;100.00;61375.16;4983299;28;20049;-29
2021/08/21 09:47:10;;;;;;;4.82;3.17;;;;;;;-148.56;100.00;61375.16;4986523;28;20116;-30
2021/08/21 09:50:36;;;;;;;7.40;3.17;;;;;;;-148.56;100.00;61375.16;4988322;28;20036;-28
2021/08/21 09:54:01;;;;;;;5.45;3.20;;;;;;;-148.56;100.00;61375.16;4984699;28;21175;-29
2021/08/21 09:56:40;;;;;;;5.35;2.80;;;;;;;-148.56;100.00;61375.16;4981609;28;20136;-31
2021/08/21 09:59:35;;;;;;;5.35;2.85;;;;;;;-148.56;100.00;61375.16;4975639;28;20040;-28
2021/08/21 10:02:16;;;;;;;4.25;2.97;;;;;;;-148.56;100.00;61375.16;4985117;28;20036;-27
2021/08/21 10:05:36;;;;;;;8.88;2.92;;;;;;;-148.56;100.00;61375.16;4983850;28;20033;-31
2021/08/21 10:08:30;;;;;;;4.97;2.78;;;;;;;-148.56;100.00;61375.16;4979949;28;20034;-29
2021/08/21 10:11:54;;;;;;;4.38;2.88;;;;;;;-148.56;100.00;61375.16;4984213;28;20091;-30
2021/08/21 10:15:03;;;;;;;4.10;2.40;;;;;;;-148.56;100.00;61375.16;4972892;28;20030;-28
2021/08/21 10:18:27;;;;;;;3.30;2.30;;;;;;;-148.56;100.00;61375.16;4982602;28;20038;-29
2021/08/21 10:21:33;;;;;;;3.55;2.58;;;;;;;;;;4982505;28;20110;-30
2021/08/21 10:26:11;;;;;;;7.03;2.72;;;;;;;29.62;35.79;96793.56;5019068;28;20424;-28
2021/08/21 10:28:39;;;;;;;2.67;2.33;;;;;;;29.77;35.79;96790.81;5003383;28;20062;-28
2021/08/21 10:31:05;;;;;;;5.28;2.50;;;;;;;29.87;35.57;96781.31;4991351;28;20045;-27
2021/08/21 10:33:57;;;;;;;5.05;2.80;;;;;;;29.97;35.41;96787.63;4973896;28;20771;-29
2021/08/21 10:36:51;;;;;;;3.38;2.65;;;;;;;30.14;35.24;96782.13;4994458;28;20346;-29
2021/08/21 10:39:40;;;;;;;3.72;2.78;;;;;;;30.14;35.24;96782.13;4992968;28;20038;-28
2021/08/21 10:42:30;;;;;;;3.33;2.33;;;;;;;30.41;34.96;96786.38;4991997;28;20148;-27
2021/08/21 10:45:00;;;;;;;3.83;2.70;;;;;;;30.51;34.83;96782.94;4987087;28;20493;-28
2021/08/21 10:47:34;;;;;;;9.20;2.90;;;;;;;30.56;34.76;96781.78;4966454;28;20087;-30
2021/08/21 10:50:11;;;;;;;6.30;3.15;;;;;;;30.63;35.00;96788.31;4983521;28;20021;-28
2021/08/21 10:52:52;;;;;;;3.88;2.22;;;;;;;-148.56;100.00;61375.16;4987013;28;22956;-28
2021/08/21 10:55:21;;;;;;;8.10;3.00;;;;;;;-148.56;100.00;61375.16;4982092;28;20033;-29
2021/08/21 10:58:15;;;;;;;16.13;3.03;;;;;;;30.63;35.00;96788.31;4989343;28;20037;-28
2021/08/21 11:00:53;;;;;;;4.53;2.90;;;;;;;30.60;34.34;96768.22;4985765;28;20030;-29
2021/08/21 11:03:24;;;;;;;9.35;3.15;;;;;;;30.59;34.68;96778.91;4987648;28;20098;-29
2021/08/21 11:06:04;;;;;;;10.65;2.78;;;;;;;30.59;34.30;96777.09;4982768;28;20287;-29
2021/08/21 11:08:35;;;;;;;6.93;2.72;;;;;;;30.55;34.80;96770.34;4979234;28;20825;-28
2021/08/21 11:11:16;;;;;;;;;;;;;;;30.47;34.88;96777.97;4985645;28;20088;-28
2021/08/21 11:13:49;;;;;;;6.40;2.60;;;;;;;30.44;35.12;96772.94;4982821;28;20638;-27
2021/08/21 11:16:14;;;;;;;8.10;3.10;;;;;;;30.37;35.24;96773.38;4982446;28;20060;-29
2021/08/21 11:18:49;;;;;;;6.93;3.03;;;;;;;30.37;35.24;96773.38;4978476;28;20029;-29
2021/08/21 11:22:30;;;;;;;10.32;3.22;;;;;;;-148.56;100.00;61375.16;4983421;28;20033;-28
2021/08/21 11:25:23;;;;;;;14.18;3.95;;;;;;;-148.56;100.00;61375.16;4994612;28;20087;-28
2021/08/21 11:28:43;;;;;;;12.27;3.42;;;;;;;-148.56;100.00;61375.16;4991218;28;22207;-28
2021/08/21 11:32:14;;;;;;;11.27;3.95;;;;;;;-148.56;100.00;61375.16;4978074;28;20057;-27
2021/08/21 11:35:43;;;;;;;25.73;4.10;;;;;;;-148.56;100.00;61375.16;4986652;28;20033;-29
2021/08/21 11:38:28;;;;;;;12.50;4.32;;;;;;;30.38;100.00;61375.16;4980001;28;20297;-28
2021/08/21 11:41:54;;;;;;;12.52;4.25;;;;;;;-148.56;100.00;61375.16;4978656;28;20076;-29
2021/08/21 11:45:20;;;;;;;12.98;3.75;;;;;;;-148.56;100.00;61375.16;4976960;28;20054;-28
2021/08/21 11:48:43;;;;;;;11.65;4.32;;;;;;;-148.56;100.00;61375.16;4979566;28;20033;-28
2021/08/21 11:52:07;;;;;;;14.10;3.72;;;;;;;-148.56;100.00;61375.16;4975931;28;20084;-28
2021/08/21 11:55:31;;;;;;;10.38;4.00;;;;;;;-148.56;100.00;61375.16;4983208;28;20062;-30
2021/08/21 11:58:55;;;;;;;9.27;3.88;;;;;;;-148.56;100.00;61375.16;4973643;28;20123;-29
2021/08/21 12:02:19;;;;;;;10.65;3.67;;;;;;;-148.56;100.00;61375.16;4982890;28;20034;-27
2021/08/21 12:05:52;;;;;;;11.15;3.67;;;;;;;-148.56;100.00;61375.16;4983063;28;20035;-27
2021/08/21 12:09:17;;;;;;;12.07;5.07;;;;;;;-148.56;100.00;61375.16;4980492;28;20495;-27
2021/08/21 12:12:41;;;;;;;9.40;3.50;;;;;;;-148.56;100.00;61375.16;4958269;28;20104;-28
2021/08/21 12:16:06;;;;;;;8.20;3.53;;;;;;;-148.56;100.00;61375.16;4973012;28;20060;-28
2021/08/21 12:19:31;;;;;;;8.02;3.65;;;;;;;-148.56;100.00;61375.16;4974648;28;20033;-28
2021/08/21 12:22:55;;;;;;;14.13;3.70;;;;;;;-148.56;100.00;61375.16;4958422;28;20025;-28
2021/08/21 12:26:32;;;;;;;12.07;4.03;;;;;;;-148.56;100.00;61375.16;4965842;28;20033;-29
2021/08/21 12:30:11;;;;;;;9.73;3.53;;;;;;;-148.56;100.00;61375.16;4979931;28;20103;-28
2021/08/21 12:33:39;;;;;;;6.22;3.28;;;;;;;-148.56;100.00;61375.16;4980130;28;20041;-28
2021/08/21 12:37:10;;;;;;;10.35;3.33;;;;;;;-148.56;100.00;61375.16;4982458;28;20056;-28
2021/08/21 12:40:34;;;;;;;7.70;3.42;;;;;;;-148.56;100.00;61375.16;4976964;28;20037;-29
2021/08/21 12:44:05;;;;;;;8.60;3.20;;;;;;;-148.56;100.00;61375.16;4977009;28;20037;-29
2021/08/21 12:47:35;;;;;;;5.22;2.92;;;;;;;-148.56;100.00;61375.16;4977588;28;20121;-27
2021/08/21 12:51:07;;;;;;;8.82;3.35;;;;;;;-148.56;100.00;61375.16;4978761;28;20041;-28
2021/08/21 12:54:32;;;;;;;7.70;3.00;;;;;;;-148.56;100.00;61375.16;4977791;28;20116;-29
2021/08/21 12:58:09;;;;;;;8.95;3.13;;;;;;;-148.56;100.00;61375.16;4979807;28;20038;-28
2021/08/21 13:01:33;;;;;;;6.82;3.22;;;;;;;-148.56;100.00;61375.16;4978504;28;21914;-28
2021/08/21 13:05:03;;;;;;;7.55;3.08;;;;;;;-148.56;100.00;61375.16;4974318;28;20500;-29
2021/08/21 13:08:39;;;;;;;7.22;3.20;;;;;;;-148.56;100.00;61375.16;4977076;28;20037;-29
2021/08/21 13:12:04;;;;;;;7.65;3.53;;;;;;;-148.56;100.00;61375.16;4979323;28;20030;-28
2021/08/21 13:15:28;;;;;;;8.57;3.30;;;;;;;-148.56;100.00;61375.16;4981645;28;20033;-28
2021/08/21 13:18:54;;;;;;;6.43;3.00;;;;;;;-148.56;100.00;61375.16;4978916;28;20030;-27
2021/08/21 13:22:17;;;;;;;5.28;2.58;;;;;;;-148.56;100.00;61375.16;4969445;28;20455;-27
2021/08/21 13:25:42;;;;;;;5.32;3.00;;;;;;;-148.56;100.00;61375.16;4983130;28;20062;-28
2021/08/21 13:29:07;;;;;;;6.28;2.92;;;;;;;-148.56;100.00;61375.16;4972424;28;20595;-28
2021/08/21 13:32:28;;;;;;;6.18;2.85;;;;;;;-148.56;100.00;61375.16;4977825;28;20061;-27
2021/08/21 13:35:52;;;;;;;5.25;2.63;;;;;;;-148.56;100.00;61375.16;4978480;28;20760;-28
2021/08/21 13:39:16;;;;;;;5.35;2.70;;;;;;;-148.56;100.00;61375.16;4979883;28;20578;-26
2021/08/21 13:42:40;;;;;;;5.97;2.67;;;;;;;-148.56;100.00;61375.16;4980201;28;20939;-29
2021/08/21 13:46:05;;;;;;;5.18;2.70;;;;;;;-148.56;100.00;61375.16;4974117;28;20040;-28
2021/08/21 13:49:24;;;;;;;7.70;3.05;;;;;;;-148.56;100.00;61375.16;4978127;28;20038;-29
2021/08/21 13:52:48;;;;;;;5.05;2.53;;;;;;;-148.56;100.00;61375.16;4976595;28;20030;-28
2021/08/21 13:56:12;;;;;;;5.88;2.67;;;;;;;-148.56;100.00;61375.16;4979976;28;20069;-26
2021/08/21 13:59:36;;;;;;;5.13;2.70;;;;;;;-148.56;100.00;61375.16;4978459;28;20860;-28
2021/08/21 14:03:00;;;;;;;7.97;2.72;;;;;;;-148.56;100.00;61375.16;4977057;28;20041;-28
2021/08/21 14:06:24;;;;;;;4.07;2.45;;;;;;;-148.56;100.00;61375.16;4976687;28;20116;-28
2021/08/21 14:09:48;;;;;;;4.82;2.40;;;;;;;-148.56;100.00;61375.16;4974866;28;20440;-26
2021/08/21 14:13:11;;;;;;;5.80;2.42;;;;;;;-148.56;100.00;61375.16;4973421;28;20065;-29
2021/08/21 14:16:36;;;;;;;4.72;2.45;;;;;;;-148.56;100.00;61375.16;4978062;28;20030;-28
2021/08/21 14:20:01;;;;;;;6.40;2.70;;;;;;;-148.56;100.00;61375.16;4977693;28;20513;-28
2021/08/21 14:23:25;;;;;;;3.75;2.30;;;;;;;-148.56;100.00;61375.16;4971182;28;20021;-29
2021/08/21 14:26:49;;;;;;;4.22;2.40;;;;;;;-148.56;100.00;61375.16;4975935;28;20496;-29
2021/08/21 14:30:13;;;;;;;4.38;2.25;;;;;;;-148.56;100.00;61375.16;4977436;28;20038;-28
2021/08/21 14:33:40;;;;;;;3.92;2.30;;;;;;;-148.56;100.00;61375.16;4980124;28;20120;-29
2021/08/21 14:37:04;;;;;;;4.65;2.22;;;;;;;-148.56;100.00;61375.16;4978346;28;21935;-28